Time;durP1;ratioP1;P1;durP2;ratioP2;P2;SDS_P1;SDS_P2;PMS_P1;PMS_P2;Temp;Humidity;BMP_temperature;BMP_pressure;BME280_temperature;BME280_humidity;BME280_pressure;Samples;Min_cycle;Max_cycle;Signal;HPM_P1;HPM_P2
2023/10/01 00:01:41;;;;;;;9.45;6.53;;;21.10;79.30;;;;;;5056249;28;20104;-70
2023/10/01 00:04:07;;;;;;;7.93;5.70;;;21.10;79.30;;;;;;5055909;28;20029;-70
2023/10/01 00:06:37;;;;;;;9.98;6.28;;;21.10;79.20;;;;;;5056073;28;20032;-70
2023/10/01 00:09:06;;;;;;;10.80;6.90;;;21.10;79.20;;;;;;5055947;28;20028;-70
2023/10/01 00:11:34;;;;;;;10.65;7.13;;;21.10;79.30;;;;;;5056149;28;20048;-70
2023/10/01 00:14:03;;;;;;;10.07;6.63;;;21.10;79.20;;;;;;5056137;28;20024;-70
2023/10/01 00:16:29;;;;;;;9.23;5.85;;;21.10;79.50;;;;;;5055803;28;20025;-69
2023/10/01 00:18:55;;;;;;;9.05;6.07;;;21.10;79.60;;;;;;5054681;28;20032;-70
2023/10/01 00:21:20;;;;;;;9.95;6.47;;;21.10;79.50;;;;;;5055825;28;20377;-70
2023/10/01 00:23:46;;;;;;;9.23;6.93;;;21.10;79.50;;;;;;5055898;28;20024;-70
2023/10/01 00:26:12;;;;;;;12.82;6.55;;;21.10;79.60;;;;;;5055818;28;20104;-70
2023/10/01 00:28:37;;;;;;;10.50;6.40;;;21.10;79.70;;;;;;5055872;28;20028;-70
2023/10/01 00:31:03;;;;;;;11.05;6.47;;;21.00;79.70;;;;;;5055736;28;20025;-70
2023/10/01 00:33:29;;;;;;;19.67;7.13;;;21.00;79.80;;;;;;5055450;28;20439;-70
2023/10/01 00:35:55;;;;;;;8.68;6.10;;;21.00;79.70;;;;;;5054941;28;20067;-70
2023/10/01 00:38:20;;;;;;;13.63;5.93;;;20.90;80.00;;;;;;5055445;28;20250;-70
2023/10/01 00:40:49;;;;;;;16.98;6.82;;;20.90;80.20;;;;;;5055323;28;20142;-69
2023/10/01 00:43:14;;;;;;;13.25;6.97;;;20.90;80.30;;;;;;5054130;28;20476;-69
2023/10/01 00:45:41;;;;;;;8.93;5.82;;;20.90;80.40;;;;;;5055173;28;20037;-70
2023/10/01 00:48:14;;;;;;;10.10;5.40;;;20.90;80.50;;;;;;5055134;28;20037;-70
2023/10/01 00:50:41;;;;;;;8.85;6.05;;;20.90;80.60;;;;;;5053975;28;20146;-70
2023/10/01 00:53:09;;;;;;;9.65;5.82;;;20.80;80.30;;;;;;5055148;28;20032;-69
2023/10/01 00:55:34;;;;;;;11.85;6.47;;;20.80;80.40;;;;;;5055275;28;20025;-70
2023/10/01 00:58:00;;;;;;;13.98;6.32;;;20.70;80.40;;;;;;5053916;28;20546;-70
2023/10/01 01:00:26;;;;;;;12.70;5.88;;;20.70;80.70;;;;;;5052509;28;20048;-70
2023/10/01 01:02:58;;;;;;;10.55;6.13;;;20.60;80.90;;;;;;5052748;28;20111;-70
2023/10/01 01:05:37;;;;;;;12.15;6.22;;;20.60;81.10;;;;;;5053716;28;20021;-69
2023/10/01 01:08:09;;;;;;;8.93;6.30;;;20.60;81.30;;;;;;5054917;28;20025;-70
2023/10/01 01:10:42;;;;;;;14.45;6.63;;;20.60;81.40;;;;;;5054797;28;20029;-70
2023/10/01 01:13:08;;;;;;;11.80;6.00;;;20.60;81.50;;;;;;5054436;28;20033;-69
2023/10/01 01:15:35;;;;;;;14.15;6.90;;;20.60;81.40;;;;;;5053088;28;20358;-70
2023/10/01 01:18:07;;;;;;;10.20;7.05;;;20.60;81.70;;;;;;5054805;28;20051;-70
2023/10/01 01:20:36;;;;;;;;;;;20.60;81.80;;;;;;5054842;28;20480;-70
2023/10/01 01:23:06;;;;;;;10.85;6.43;;;20.60;81.60;;;;;;5054792;28;19958;-70
2023/10/01 01:25:32;;;;;;;10.77;6.93;;;20.60;81.60;;;;;;5054249;28;20028;-70
2023/10/01 01:27:59;;;;;;;10.38;6.72;;;20.60;81.60;;;;;;5054188;28;20033;-70
2023/10/01 01:30:29;;;;;;;12.05;6.82;;;20.70;81.70;;;;;;5054674;28;20025;-70
2023/10/01 01:32:57;;;;;;;9.27;6.90;;;20.70;81.60;;;;;;5054465;28;20045;-69
2023/10/01 01:35:29;;;;;;;11.25;7.57;;;20.70;81.60;;;;;;5054205;28;20407;-70
2023/10/01 01:38:01;;;;;;;12.00;6.60;;;20.70;81.70;;;;;;5054244;28;20028;-70
2023/10/01 01:40:32;;;;;;;14.27;6.72;;;20.70;81.70;;;;;;5054279;28;20017;-71
2023/10/01 01:43:03;;;;;;;11.02;7.10;;;20.70;81.70;;;;;;5054160;28;20044;-69
2023/10/01 01:45:33;;;;;;;13.93;6.28;;;20.70;81.80;;;;;;5054155;28;20028;-70
2023/10/01 01:48:02;;;;;;;9.57;7.10;;;20.70;81.80;;;;;;5054037;28;20405;-70
2023/10/01 01:50:27;;;;;;;11.68;6.90;;;20.70;81.70;;;;;;5053108;28;20507;-70
2023/10/01 01:52:57;;;;;;;10.55;6.53;;;20.70;81.90;;;;;;5054099;28;20061;-70
2023/10/01 01:55:27;;;;;;;12.88;6.30;;;20.70;81.80;;;;;;5054115;28;20025;-70
2023/10/01 01:58:06;;;;;;;14.30;6.57;;;20.60;81.60;;;;;;5054170;28;20059;-70
2023/10/01 02:00:34;;;;;;;12.23;6.30;;;20.50;81.90;;;;;;5053108;28;20021;-71
2023/10/01 02:03:10;;;;;;;9.93;6.38;;;20.50;82.00;;;;;;5054012;28;20032;-70
2023/10/01 02:05:47;;;;;;;11.93;6.85;;;20.40;82.30;;;;;;5053547;28;20028;-69
2023/10/01 02:08:24;;;;;;;13.15;7.10;;;20.40;82.50;;;;;;5053468;28;20032;-70
2023/10/01 02:10:56;;;;;;;13.82;6.68;;;20.40;82.50;;;;;;5053872;28;20032;-69
2023/10/01 02:13:25;;;;;;;10.02;6.22;;;20.40;82.60;;;;;;5053737;28;20370;-70
2023/10/01 02:15:52;;;;;;;12.20;6.72;;;20.40;82.80;;;;;;5053417;28;20028;-71
2023/10/01 02:18:19;;;;;;;11.30;6.68;;;20.30;82.90;;;;;;5053789;28;20049;-71
2023/10/01 02:20:56;;;;;;;10.38;6.68;;;20.30;82.90;;;;;;5053656;28;20377;-70
2023/10/01 02:23:27;;;;;;;12.38;7.03;;;20.30;82.90;;;;;;5053672;28;20017;-70
2023/10/01 02:25:53;;;;;;;12.20;6.75;;;20.30;82.80;;;;;;5053714;28;20063;-70
2023/10/01 02:28:19;;;;;;;9.23;6.55;;;20.40;82.90;;;;;;5053070;28;20032;-70
2023/10/01 02:30:44;;;;;;;11.70;6.65;;;20.40;82.80;;;;;;5053283;28;20047;-70
2023/10/01 02:33:17;;;;;;;12.15;6.88;;;20.40;82.70;;;;;;5053593;28;20040;-70
2023/10/01 02:35:49;;;;;;;9.85;6.80;;;20.40;82.70;;;;;;5053186;28;20583;-70
2023/10/01 02:41:02;;;;;;;9.98;6.25;;;20.30;82.70;;;;;;5053751;28;19959;-70
2023/10/01 02:43:34;;;;;;;11.63;6.75;;;20.30;82.80;;;;;;5053104;28;20060;-70
2023/10/01 02:46:04;;;;;;;9.55;5.82;;;20.30;82.90;;;;;;5053085;28;20423;-70
2023/10/01 02:48:30;;;;;;;9.85;6.78;;;20.20;82.70;;;;;;5052681;28;20049;-71
2023/10/01 02:50:56;;;;;;;9.38;5.63;;;20.20;82.70;;;;;;5052767;28;20029;-70
2023/10/01 02:53:23;;;;;;;10.13;6.75;;;20.10;82.80;;;;;;5053044;28;20114;-70
2023/10/01 02:55:52;;;;;;;8.77;6.28;;;20.10;83.20;;;;;;5053162;28;20416;-70
2023/10/01 02:58:27;;;;;;;9.70;6.35;;;20.00;83.30;;;;;;5052931;28;20033;-71
2023/10/01 03:00:53;;;;;;;10.93;6.95;;;20.00;83.30;;;;;;5052689;28;20083;-69
2023/10/01 03:03:31;;;;;;;8.27;6.25;;;20.00;83.50;;;;;;5052866;28;20029;-70
2023/10/01 03:05:57;;;;;;;9.68;5.60;;;19.90;83.50;;;;;;5051446;28;20032;-70
2023/10/01 03:08:59;;;;;;;12.23;6.55;;;19.90;83.40;;;;;;5053054;28;20108;-70
2023/10/01 03:11:26;;;;;;;7.38;5.65;;;19.90;83.30;;;;;;5053037;28;20377;-69
2023/10/01 03:13:54;;;;;;;7.45;5.50;;;19.80;83.30;;;;;;5051921;28;20047;-70
2023/10/01 03:16:42;;;;;;;9.88;5.88;;;19.80;83.50;;;;;;5052588;28;20017;-70
2023/10/01 03:19:24;;;;;;;10.35;6.10;;;19.70;83.80;;;;;;5052525;28;20064;-70
2023/10/01 03:24:34;;;;;;;9.57;6.25;;;19.70;84.10;;;;;;5052464;28;20424;-71
2023/10/01 03:27:25;;;;;;;10.95;6.18;;;19.70;84.30;;;;;;5051050;28;20040;-70
2023/10/01 03:29:53;;;;;;;10.40;6.40;;;19.60;84.40;;;;;;5052107;28;20029;-70
2023/10/01 03:32:33;;;;;;;8.05;5.88;;;19.60;84.30;;;;;;5052227;28;20044;-70
2023/10/01 03:35:07;;;;;;;9.00;6.05;;;19.50;84.50;;;;;;5052011;28;20488;-70
2023/10/01 03:37:38;;;;;;;10.57;5.82;;;19.50;84.50;;;;;;5052425;28;20049;-69
2023/10/01 03:40:21;;;;;;;10.30;6.03;;;19.50;84.50;;;;;;5052474;28;20025;-70
2023/10/01 03:42:53;;;;;;;8.30;5.82;;;19.50;84.70;;;;;;5052428;28;20047;-69
2023/10/01 03:45:37;;;;;;;12.73;6.45;;;19.40;84.60;;;;;;5052099;28;20476;-70
2023/10/01 03:48:06;;;;;;;11.23;6.57;;;19.40;84.70;;;;;;5052125;28;20052;-70
2023/10/01 03:50:45;;;;;;;10.70;6.55;;;19.40;84.90;;;;;;5052617;28;20025;-70
2023/10/01 03:53:11;;;;;;;10.35;6.20;;;19.40;85.10;;;;;;5052353;28;20063;-70
2023/10/01 03:55:39;;;;;;;11.27;6.15;;;19.40;85.20;;;;;;5052307;28;20307;-70
2023/10/01 04:00:41;;;;;;;12.68;6.30;;;19.30;85.60;;;;;;5048376;28;20076;-69
2023/10/01 04:03:13;;;;;;;9.90;6.18;;;19.30;85.50;;;;;;5032051;28;20507;-68
2023/10/01 04:05:44;;;;;;;14.45;6.10;;;19.30;85.40;;;;;;5031367;28;20060;-70
2023/10/01 04:08:16;;;;;;;18.80;6.53;;;19.30;85.40;;;;;;5032431;28;20014;-70
2023/10/01 04:10:42;;;;;;;;;;;19.20;85.40;;;;;;5032925;28;20531;-70
2023/10/01 04:13:20;;;;;;;8.13;5.95;;;19.20;85.50;;;;;;5032370;28;19919;-69
2023/10/01 04:16:07;;;;;;;11.88;6.60;;;19.20;85.60;;;;;;5032266;28;20104;-70
2023/10/01 04:18:34;;;;;;;10.40;6.60;;;19.20;85.70;;;;;;5031067;28;20108;-71
2023/10/01 04:23:30;;;;;;;9.57;6.95;;;19.20;85.80;;;;;;5032571;28;20033;-70
2023/10/01 04:25:56;;;;;;;14.73;6.70;;;19.10;85.70;;;;;;5035692;28;20022;-70
2023/10/01 04:28:25;;;;;;;10.73;7.18;;;19.20;86.00;;;;;;5035921;28;20029;-70
2023/10/01 04:30:56;;;;;;;13.10;6.60;;;19.20;86.00;;;;;;5035885;28;20549;-69
2023/10/01 04:33:25;;;;;;;12.52;6.53;;;19.20;85.90;;;;;;5035461;28;20037;-70
2023/10/01 04:35:51;;;;;;;18.00;6.43;;;19.30;85.70;;;;;;5035798;28;20390;-70
2023/10/01 04:38:28;;;;;;;12.00;7.18;;;19.30;85.70;;;;;;5033994;28;20029;-70
2023/10/01 04:40:54;;;;;;;9.52;6.57;;;19.30;85.60;;;;;;5035575;28;20014;-70
2023/10/01 04:43:20;;;;;;;11.25;7.38;;;19.30;85.50;;;;;;5035688;28;20445;-70
2023/10/01 04:45:47;;;;;;;11.20;6.82;;;19.40;85.40;;;;;;5035520;28;20382;-70
2023/10/01 04:48:22;;;;;;;12.45;7.57;;;19.40;85.40;;;;;;5035340;28;20071;-71
2023/10/01 04:50:55;;;;;;;11.93;6.88;;;19.40;85.40;;;;;;5035650;28;20033;-70
2023/10/01 04:53:25;;;;;;;13.07;7.05;;;19.40;85.40;;;;;;5035228;28;20030;-70
2023/10/01 04:56:05;;;;;;;11.60;6.70;;;19.40;85.40;;;;;;5035102;28;20027;-70
2023/10/01 04:58:37;;;;;;;13.40;6.97;;;19.40;85.30;;;;;;5035127;28;20021;-70
2023/10/01 05:01:05;;;;;;;;;;;19.40;85.40;;;;;;5035806;28;20021;-69
2023/10/01 05:03:40;;;;;;;12.25;6.63;;;19.40;85.20;;;;;;5035004;28;20008;-70
2023/10/01 05:06:22;;;;;;;12.30;6.50;;;19.40;85.00;;;;;;5035124;28;20025;-70
2023/10/01 05:08:58;;;;;;;12.57;7.30;;;19.40;85.00;;;;;;5034805;28;20496;-69
2023/10/01 05:11:29;;;;;;;11.93;6.45;;;19.40;84.90;;;;;;5034911;28;20099;-71
2023/10/01 05:13:58;;;;;;;15.40;6.80;;;19.40;84.90;;;;;;5034794;28;20029;-70
2023/10/01 05:16:27;;;;;;;10.75;6.95;;;19.40;84.90;;;;;;5035026;28;20026;-70
2023/10/01 05:19:09;;;;;;;9.52;6.45;;;19.30;85.30;;;;;;5034819;28;20036;-70
2023/10/01 05:21:46;;;;;;;11.32;6.35;;;19.30;85.40;;;;;;5033348;28;20025;-70
2023/10/01 05:24:39;;;;;;;12.02;6.32;;;19.30;85.30;;;;;;5035101;28;20038;-70
2023/10/01 05:27:18;;;;;;;10.55;6.80;;;19.30;85.10;;;;;;5034917;28;20354;-69
2023/10/01 05:29:46;;;;;;;9.88;5.97;;;19.30;85.00;;;;;;5034714;28;20466;-70
2023/10/01 05:32:13;;;;;;;10.10;6.40;;;19.40;85.00;;;;;;5034567;28;20041;-70
2023/10/01 05:34:45;;;;;;;16.05;6.53;;;19.40;84.90;;;;;;5034368;28;20035;-70
2023/10/01 05:37:36;;;;;;;9.95;6.15;;;19.40;84.90;;;;;;5033582;28;20753;-71
2023/10/01 05:40:00;;;;;;;12.30;6.35;;;19.50;85.00;;;;;;5032723;28;20034;-70
2023/10/01 05:42:28;;;;;;;12.00;6.78;;;19.50;85.10;;;;;;5033992;28;20079;-69
2023/10/01 05:44:59;;;;;;;9.68;6.30;;;19.50;85.30;;;;;;5034311;28;20458;-71
2023/10/01 05:50:12;;;;;;;12.65;6.55;;;19.50;85.50;;;;;;5034877;28;20573;-70
2023/10/01 05:52:40;;;;;;;12.48;7.28;;;19.50;85.70;;;;;;5034029;28;20048;-70
2023/10/01 05:55:12;;;;;;;18.42;7.07;;;19.50;85.80;;;;;;5034286;28;20028;-70
2023/10/01 05:57:39;;;;;;;9.98;6.38;;;19.60;85.80;;;;;;5033939;28;20024;-71
2023/10/01 06:00:16;;;;;;;10.65;6.63;;;19.50;85.90;;;;;;5033847;28;20025;-71
2023/10/01 06:03:00;;;;;;;14.63;7.13;;;19.60;86.10;;;;;;5033935;28;20362;-71
2023/10/01 06:05:33;;;;;;;12.02;7.13;;;19.50;86.10;;;;;;5033773;28;20022;-72
2023/10/01 06:08:12;;;;;;;14.38;6.43;;;19.60;86.30;;;;;;5032587;28;20067;-71
2023/10/01 06:11:04;;;;;;;11.02;6.57;;;19.60;86.50;;;;;;5033782;28;20067;-71
2023/10/01 06:13:30;;;;;;;13.70;6.85;;;19.60;86.40;;;;;;5033431;28;20128;-70
2023/10/01 06:15:57;;;;;;;60.55;8.65;;;19.70;86.50;;;;;;5033864;28;20100;-70
2023/10/01 06:18:24;;;;;;;9.48;6.55;;;19.70;86.50;;;;;;5033529;28;20033;-69
2023/10/01 06:20:53;;;;;;;13.18;7.03;;;19.80;86.70;;;;;;5033367;28;20037;-71
2023/10/01 06:23:21;;;;;;;11.07;7.32;;;19.80;86.90;;;;;;5033360;28;20488;-70
2023/10/01 06:25:53;;;;;;;11.02;7.07;;;19.80;86.50;;;;;;5033371;28;20032;-70
2023/10/01 06:28:20;;;;;;;12.95;6.82;;;19.90;86.40;;;;;;5033310;28;20084;-70
2023/10/01 06:30:46;;;;;;;12.88;7.18;;;19.90;86.20;;;;;;5033500;28;20033;-70
2023/10/01 06:33:29;;;;;;;18.55;6.85;;;19.90;86.40;;;;;;5033097;28;20048;-69
2023/10/01 06:38:41;;;;;;;13.40;7.15;;;19.90;86.50;;;;;;5041579;28;20520;-69
2023/10/01 06:41:13;;;;;;;11.07;7.05;;;20.00;86.40;;;;;;5044163;28;20048;-69
2023/10/01 06:43:49;;;;;;;10.18;7.22;;;20.00;86.20;;;;;;5035297;28;20512;-69
2023/10/01 06:46:33;;;;;;;13.18;7.05;;;20.10;86.30;;;;;;5049703;28;20074;-69
2023/10/01 06:48:58;;;;;;;11.57;7.38;;;20.10;86.40;;;;;;5039796;28;20138;-69
2023/10/01 06:51:26;;;;;;;10.30;6.75;;;20.10;86.30;;;;;;5032708;28;20065;-70
2023/10/01 06:53:58;;;;;;;13.00;7.20;;;20.10;86.20;;;;;;5032971;28;20033;-70
2023/10/01 06:56:26;;;;;;;12.32;7.13;;;20.20;86.40;;;;;;5031853;28;20398;-70
2023/10/01 06:59:27;;;;;;;11.18;7.13;;;20.30;86.50;;;;;;5032846;28;20409;-69
2023/10/01 07:01:49;;;;;;;14.68;7.45;;;20.30;86.70;;;;;;5031572;28;20049;-68
2023/10/01 07:04:23;;;;;;;13.13;7.43;;;20.30;86.70;;;;;;5032008;28;20470;-69
2023/10/01 07:06:53;;;;;;;11.73;7.95;;;20.40;86.70;;;;;;5033139;28;20051;-68
2023/10/01 07:09:32;;;;;;;16.02;8.00;;;20.40;86.50;;;;;;5033088;28;20564;-69
2023/10/01 07:11:59;;;;;;;12.45;7.78;;;20.50;86.50;;;;;;5034980;28;20103;-69
2023/10/01 07:14:38;;;;;;;14.23;8.60;;;20.50;86.30;;;;;;5047724;28;20029;-69
2023/10/01 07:17:08;;;;;;;14.70;8.57;;;20.60;86.10;;;;;;5050242;28;20396;-69
2023/10/01 07:19:34;;;;;;;13.15;8.73;;;20.70;85.70;;;;;;5050035;28;20033;-69
2023/10/01 07:22:06;;;;;;;16.10;9.07;;;20.70;85.40;;;;;;5046996;28;20017;-69
2023/10/01 07:24:38;;;;;;;15.50;8.30;;;20.80;85.30;;;;;;5032855;28;20029;-69
2023/10/01 07:27:05;;;;;;;11.48;8.70;;;20.80;85.20;;;;;;5032446;28;20036;-69
2023/10/01 07:29:36;;;;;;;14.73;8.82;;;20.90;85.30;;;;;;5029573;28;20030;-69
2023/10/01 07:32:07;;;;;;;12.68;9.30;;;21.00;85.50;;;;;;5030065;28;20045;-71
2023/10/01 07:34:39;;;;;;;20.83;9.23;;;21.00;85.20;;;;;;5031011;28;20087;-71
2023/10/01 07:37:05;;;;;;;14.90;9.38;;;21.10;84.80;;;;;;5032734;28;20033;-71
2023/10/01 07:39:35;;;;;;;17.55;9.85;;;21.10;84.70;;;;;;5032506;28;20104;-70
2023/10/01 07:42:10;;;;;;;18.48;9.63;;;21.20;84.70;;;;;;5032607;28;20021;-69
2023/10/01 07:44:36;;;;;;;13.60;9.90;;;21.20;84.70;;;;;;5032799;28;20028;-71
2023/10/01 07:47:03;;;;;;;13.20;8.90;;;21.30;84.40;;;;;;5031232;28;20068;-70
2023/10/01 07:49:46;;;;;;;17.50;10.05;;;21.30;84.50;;;;;;5032676;28;20030;-70
2023/10/01 07:52:19;;;;;;;14.65;9.75;;;21.40;84.90;;;;;;5032407;28;20033;-70
2023/10/01 07:54:48;;;;;;;14.32;9.05;;;21.40;84.90;;;;;;5032454;28;20091;-70
2023/10/01 07:57:28;;;;;;;20.65;9.68;;;21.50;84.70;;;;;;5032468;28;20029;-70
2023/10/01 08:00:25;;;;;;;16.90;9.88;;;21.50;84.60;;;;;;5035182;28;20048;-69
2023/10/01 08:05:38;;;;;;;12.85;9.63;;;21.70;84.50;;;;;;5035823;28;20444;-70
2023/10/01 08:08:08;;;;;;;12.88;9.85;;;21.70;84.50;;;;;;5035646;28;20014;-70
2023/10/01 08:10:37;;;;;;;16.88;9.27;;;21.70;84.50;;;;;;5035880;28;20030;-70
2023/10/01 08:13:24;;;;;;;14.30;10.35;;;21.80;84.30;;;;;;5036124;28;20381;-70
2023/10/01 08:15:58;;;;;;;16.70;9.93;;;21.80;84.20;;;;;;5036062;28;20025;-70
2023/10/01 08:18:39;;;;;;;18.73;10.32;;;21.90;84.00;;;;;;5034722;28;20453;-70
2023/10/01 08:21:17;;;;;;;15.85;9.90;;;21.90;84.00;;;;;;5036184;28;20022;-70
2023/10/01 08:23:54;;;;;;;15.52;9.77;;;21.90;83.80;;;;;;5035896;28;20147;-70
2023/10/01 08:29:06;;;;;;;15.25;10.20;;;22.00;83.50;;;;;;5035957;28;20431;-70
2023/10/01 08:34:28;;;;;;;20.38;10.15;;;22.10;83.00;;;;;;5033221;28;20158;-70
2023/10/01 08:36:55;;;;;;;14.50;10.15;;;22.20;82.80;;;;;;5032963;28;20037;-71
2023/10/01 08:39:35;;;;;;;17.77;10.20;;;22.20;82.60;;;;;;5035119;28;20018;-70
2023/10/01 08:42:08;;;;;;;12.20;9.25;;;22.30;82.60;;;;;;5035726;28;20021;-70
2023/10/01 08:44:51;;;;;;;17.85;10.50;;;22.30;82.40;;;;;;5035610;28;20429;-69
2023/10/01 08:47:32;;;;;;;12.57;9.52;;;22.40;82.20;;;;;;5035300;28;20092;-71
2023/10/01 08:52:52;;;;;;;16.25;10.02;;;22.50;81.60;;;;;;5036011;28;20496;-70
2023/10/01 09:00:51;;;;;;;11.80;10.02;;;22.70;81.00;;;;;;5032352;28;20079;-70
2023/10/01 09:03:26;;;;;;;15.82;10.10;;;22.70;80.80;;;;;;5032435;28;20025;-71
2023/10/01 09:06:24;;;;;;;16.73;10.68;;;22.70;80.70;;;;;;5034743;28;20076;-70
2023/10/01 09:08:54;;;;;;;19.60;10.10;;;22.80;80.60;;;;;;5035462;28;20053;-70
2023/10/01 09:11:47;;;;;;;17.58;10.35;;;22.80;80.20;;;;;;5035036;28;20030;-70
2023/10/01 09:14:20;;;;;;;17.00;10.40;;;22.90;80.50;;;;;;5033545;28;20124;-70
2023/10/01 09:16:57;;;;;;;16.13;10.13;;;22.90;80.30;;;;;;5034915;28;20100;-70
2023/10/01 09:19:30;;;;;;;16.20;9.88;;;23.00;79.50;;;;;;5034735;28;20024;-70
2023/10/01 09:22:04;;;;;;;13.13;9.15;;;23.00;78.90;;;;;;5034464;28;20541;-70
2023/10/01 09:24:39;;;;;;;15.20;9.52;;;23.00;78.70;;;;;;5034896;28;20087;-70
2023/10/01 09:27:17;;;;;;;19.90;10.15;;;23.10;78.20;;;;;;5033506;28;20461;-70
2023/10/01 09:29:45;;;;;;;16.50;9.75;;;23.20;77.80;;;;;;5034742;28;20072;-70
2023/10/01 09:32:13;;;;;;;18.70;9.57;;;23.20;77.80;;;;;;5034673;28;20017;-70
2023/10/01 09:34:53;;;;;;;14.40;9.80;;;23.20;77.60;;;;;;5034596;28;20037;-70
2023/10/01 09:42:59;;;;;;;12.50;9.60;;;23.40;76.90;;;;;;5034934;28;20501;-70
2023/10/01 09:45:29;;;;;;;20.70;9.65;;;23.40;76.50;;;;;;5034721;28;20072;-70
2023/10/01 09:48:07;;;;;;;16.23;9.35;;;23.40;75.90;;;;;;5033021;28;20490;-71
2023/10/01 09:50:41;;;;;;;13.63;9.13;;;23.50;75.30;;;;;;5033673;28;20021;-71
2023/10/01 09:53:14;;;;;;;15.00;9.88;;;23.50;75.30;;;;;;5031528;28;20507;-71
2023/10/01 09:55:47;;;;;;;20.67;10.43;;;23.60;75.30;;;;;;5031338;28;20026;-71
2023/10/01 09:58:29;;;;;;;13.55;9.52;;;23.60;74.80;;;;;;5032656;28;20378;-70
2023/10/01 10:01:01;;;;;;;19.27;9.98;;;23.60;74.90;;;;;;5034458;28;20029;-70
2023/10/01 10:03:37;;;;;;;13.70;9.02;;;23.70;74.70;;;;;;5034249;28;20025;-70
2023/10/01 10:06:07;;;;;;;14.98;9.35;;;23.70;74.70;;;;;;5034062;28;20021;-70
2023/10/01 10:08:38;;;;;;;14.40;8.55;;;23.80;74.40;;;;;;5033963;28;20418;-70
2023/10/01 10:11:24;;;;;;;14.07;8.88;;;23.90;74.10;;;;;;5033670;28;20017;-71
2023/10/01 10:13:50;;;;;;;13.70;8.43;;;23.90;73.70;;;;;;5033565;28;20045;-70
2023/10/01 10:16:30;;;;;;;15.75;8.68;;;23.90;73.10;;;;;;5033663;28;20071;-70
2023/10/01 10:19:23;;;;;;;16.45;7.95;;;24.00;72.90;;;;;;5034203;28;20032;-71
2023/10/01 10:24:34;;;;;;;16.48;7.50;;;24.00;71.70;;;;;;5033693;28;20040;-70
2023/10/01 10:27:07;;;;;;;13.90;8.32;;;24.00;71.30;;;;;;5033685;28;20053;-70
2023/10/01 10:29:57;;;;;;;20.65;7.88;;;24.10;71.30;;;;;;5033250;28;20108;-70
2023/10/01 10:32:41;;;;;;;14.38;7.40;;;24.10;71.60;;;;;;5033534;28;20039;-71
2023/10/01 10:35:12;;;;;;;10.80;7.78;;;24.10;71.00;;;;;;5033533;28;20017;-70
2023/10/01 10:37:43;;;;;;;14.05;7.55;;;24.10;71.30;;;;;;5033415;28;20072;-71
2023/10/01 10:40:13;;;;;;;11.77;7.63;;;24.20;71.10;;;;;;5033551;28;20018;-70
2023/10/01 10:42:57;;;;;;;13.70;7.57;;;24.20;70.40;;;;;;5033548;28;20094;-70
2023/10/01 10:45:31;;;;;;;12.95;7.55;;;24.20;69.80;;;;;;5033092;28;20026;-70
2023/10/01 10:48:07;;;;;;;13.52;8.00;;;24.20;69.70;;;;;;5033317;28;20049;-70
2023/10/01 10:50:56;;;;;;;15.90;7.32;;;24.30;70.00;;;;;;5033104;28;20041;-71
2023/10/01 10:53:42;;;;;;;16.60;8.90;;;24.30;69.50;;;;;;5033180;28;20367;-71
2023/10/01 10:56:10;;;;;;;16.08;8.95;;;24.40;69.70;;;;;;5033247;28;20087;-70
2023/10/01 10:59:01;;;;;;;25.95;11.23;;;24.30;70.00;;;;;;5033001;28;20540;-71
2023/10/01 11:01:43;;;;;;;17.80;8.07;;;24.40;70.90;;;;;;5033188;28;20021;-71
2023/10/01 11:04:09;;;;;;;11.63;7.45;;;24.50;70.70;;;;;;5033226;28;20481;-71
2023/10/01 11:07:01;;;;;;;10.57;7.50;;;24.50;70.80;;;;;;5032647;28;20520;-70
2023/10/01 11:09:27;;;;;;;15.55;8.60;;;24.50;70.60;;;;;;5033376;28;20029;-71
2023/10/01 11:12:21;;;;;;;14.77;7.82;;;24.60;70.70;;;;;;5033068;28;20036;-71
2023/10/01 11:15:23;;;;;;;17.25;9.25;;;24.70;70.40;;;;;;5032452;28;20041;-70
2023/10/01 11:18:01;;;;;;;17.50;10.30;;;24.70;69.90;;;;;;5033230;28;20029;-71
2023/10/01 11:20:33;;;;;;;14.13;8.68;;;24.80;69.80;;;;;;5032840;28;20032;-72
2023/10/01 11:22:59;;;;;;;12.57;7.40;;;24.80;70.60;;;;;;5031814;28;20108;-71
2023/10/01 11:25:25;;;;;;;11.20;8.15;;;24.80;70.70;;;;;;5029995;28;20179;-71
2023/10/01 11:28:04;;;;;;;15.85;8.30;;;24.80;70.10;;;;;;5029842;28;20026;-71
2023/10/01 11:30:34;;;;;;;14.73;8.05;;;24.90;70.00;;;;;;5032248;28;20393;-71
2023/10/01 11:35:31;;;;;;;11.27;7.90;;;24.90;69.60;;;;;;5036803;28;20092;-71
2023/10/01 11:38:19;;;;;;;9.40;7.22;;;24.80;69.20;;;;;;5036621;28;20528;-71
2023/10/01 11:43:38;;;;;;;16.20;8.10;;;24.90;70.80;;;;;;5037059;28;20040;-70
2023/10/01 11:46:19;;;;;;;15.60;7.50;;;25.00;70.30;;;;;;5036534;28;20061;-71
2023/10/01 11:49:06;;;;;;;11.77;7.60;;;25.00;70.10;;;;;;5036617;28;20503;-71
2023/10/01 11:51:50;;;;;;;11.40;7.18;;;25.10;70.10;;;;;;5036679;28;20029;-71
2023/10/01 11:54:18;;;;;;;11.98;7.63;;;25.10;69.40;;;;;;5036121;28;20086;-71
2023/10/01 11:56:47;;;;;;;14.02;8.10;;;25.10;69.10;;;;;;5036622;28;20018;-71
2023/10/01 11:59:18;;;;;;;14.60;8.00;;;25.10;69.60;;;;;;5036484;28;20037;-71
2023/10/01 12:01:52;;;;;;;15.25;7.90;;;25.10;68.60;;;;;;5036156;28;20021;-71
2023/10/01 12:07:15;;;;;;;10.73;7.22;;;25.10;69.20;;;;;;5036590;28;20095;-71
2023/10/01 12:09:48;;;;;;;12.70;7.13;;;25.20;67.90;;;;;;5035962;28;20025;-70
2023/10/01 12:12:27;;;;;;;14.88;7.22;;;25.20;66.80;;;;;;5036188;28;20025;-71
2023/10/01 12:14:55;;;;;;;13.13;7.88;;;25.20;67.70;;;;;;5036158;28;20021;-71
2023/10/01 12:17:26;;;;;;;12.95;7.63;;;25.20;68.10;;;;;;5035625;28;20116;-71
2023/10/01 12:19:59;;;;;;;13.20;6.93;;;25.20;67.80;;;;;;5035849;28;20036;-71
2023/10/01 12:22:28;;;;;;;13.15;7.85;;;25.30;68.20;;;;;;5036337;28;20029;-70
2023/10/01 12:24:56;;;;;;;16.77;7.90;;;25.30;68.40;;;;;;5035793;28;20029;-71
2023/10/01 12:27:43;;;;;;;11.77;7.13;;;25.30;67.80;;;;;;5035937;28;20031;-70
2023/10/01 12:30:30;;;;;;;12.23;7.25;;;25.30;67.40;;;;;;5035640;28;20018;-71
2023/10/01 12:33:02;;;;;;;10.55;7.28;;;25.30;68.30;;;;;;5035895;28;20041;-70
2023/10/01 12:35:29;;;;;;;10.75;6.95;;;25.30;67.40;;;;;;5035646;28;20386;-71
2023/10/01 12:40:52;;;;;;;13.02;7.68;;;25.30;67.50;;;;;;5035908;28;20099;-71
2023/10/01 12:43:37;;;;;;;13.85;7.25;;;25.40;67.70;;;;;;5036067;28;20431;-71
2023/10/01 12:46:13;;;;;;;12.93;7.40;;;25.40;68.20;;;;;;5034942;28;20096;-71
2023/10/01 12:48:57;;;;;;;13.98;7.30;;;25.40;67.80;;;;;;5035347;28;20081;-71
2023/10/01 12:51:32;;;;;;;12.35;7.10;;;25.50;67.50;;;;;;5035700;28;20097;-71
2023/10/01 12:53:59;;;;;;;9.40;6.28;;;25.50;68.00;;;;;;5035269;28;20026;-71
2023/10/01 12:59:18;;;;;;;10.15;6.68;;;25.50;68.00;;;;;;5014565;28;20413;-71
2023/10/01 13:01:51;;;;;;;12.45;7.68;;;25.50;69.00;;;;;;5035465;28;20029;-71
2023/10/01 13:04:25;;;;;;;13.32;7.25;;;25.50;69.40;;;;;;5035402;28;20473;-71
2023/10/01 13:06:52;;;;;;;12.52;6.15;;;25.50;68.20;;;;;;5035227;28;20032;-71
2023/10/01 13:12:17;;;;;;;14.63;6.78;;;25.50;67.20;;;;;;5035244;28;20040;-71
2023/10/01 13:15:14;;;;;;;12.70;7.10;;;25.50;67.70;;;;;;5035405;28;20036;-71
2023/10/01 13:17:43;;;;;;;13.63;6.10;;;25.50;68.60;;;;;;5035082;28;20065;-70
2023/10/01 13:22:51;;;;;;;12.82;6.82;;;25.60;66.80;;;;;;5034574;28;20401;-71
2023/10/01 13:25:23;;;;;;;11.52;6.75;;;25.50;66.50;;;;;;5034788;28;20465;-71
2023/10/01 13:28:01;;;;;;;;;;;25.60;65.60;;;;;;5035173;28;20033;-71
2023/10/01 13:30:30;;;;;;;10.90;6.50;;;25.60;66.80;;;;;;5034396;28;20005;-71
2023/10/01 13:35:57;;;;;;;13.50;5.78;;;25.60;67.50;;;;;;5021512;28;20394;-71
2023/10/01 13:38:27;;;;;;;15.38;6.63;;;25.60;66.00;;;;;;5034515;28;20488;-71
2023/10/01 14:11:02;;;;;;;14.93;6.15;;;25.70;65.10;;;;;;5034004;28;20036;-70
2023/10/01 14:13:35;;;;;;;9.27;5.88;;;25.70;64.40;;;;;;5033717;28;20025;-71
2023/10/01 14:19:14;;;;;;;11.20;5.72;;;25.70;62.50;;;;;;5011341;28;20149;-71
2023/10/01 14:21:41;;;;;;;14.77;5.78;;;25.70;62.50;;;;;;5034137;28;20017;-71
2023/10/01 14:24:23;;;;;;;8.65;5.20;;;25.60;62.40;;;;;;5034065;28;20087;-71
2023/10/01 14:26:50;;;;;;;;;;;25.60;61.60;;;;;;5034786;28;20487;-71
2023/10/01 14:29:22;;;;;;;8.73;5.40;;;25.60;62.00;;;;;;5033700;28;19905;-71
2023/10/01 14:31:52;;;;;;;8.85;5.72;;;25.60;63.70;;;;;;5034035;28;20104;-70
2023/10/01 14:34:20;;;;;;;9.65;6.10;;;25.60;64.00;;;;;;5033842;28;20128;-71
2023/10/01 14:36:47;;;;;;;9.10;5.80;;;25.60;63.80;;;;;;5033643;28;20105;-70
2023/10/01 14:39:13;;;;;;;9.18;5.50;;;25.50;64.30;;;;;;5033679;28;20052;-70
2023/10/01 14:41:45;;;;;;;10.25;5.63;;;25.60;63.30;;;;;;5033505;28;20025;-71
2023/10/01 14:44:15;;;;;;;10.73;5.75;;;25.50;62.20;;;;;;5033785;28;20405;-71